sensor_id;sensor_type;location;lat;lon;timestamp;P1;durP1;ratioP1;P2;durP2;ratioP2
46036;SDS011;31769;49.304;8.428;2023-02-01T03:03:01;11.35;;;7.90;;
46036;SDS011;31769;49.304;8.428;2023-02-01T03:06:22;9.68;;;7.47;;
46036;SDS011;31769;49.304;8.428;2023-02-01T03:09:31;9.50;;;7.57;;
46036;SDS011;31769;49.304;8.428;2023-02-01T03:12:38;12.02;;;8.27;;
46036;SDS011;31769;49.304;8.428;2023-02-01T03:16:32;11.10;;;8.18;;
46036;SDS011;31769;49.304;8.428;2023-02-01T03:19:43;13.27;;;9.25;;
46036;SDS011;31769;49.304;8.428;2023-02-01T03:22:50;11.68;;;8.38;;
46036;SDS011;31769;49.304;8.428;2023-02-01T03:25:52;12.57;;;8.73;;
46036;SDS011;31769;49.304;8.428;2023-02-01T03:28:57;11.50;;;8.98;;
46036;SDS011;31769;49.304;8.428;2023-02-01T03:32:05;13.52;;;9.07;;
46036;SDS011;31769;49.304;8.428;2023-02-01T03:35:06;14.80;;;8.80;;
46036;SDS011;31769;49.304;8.428;2023-02-01T03:38:21;14.18;;;9.48;;
46036;SDS011;31769;49.304;8.428;2023-02-01T03:44:45;15.25;;;9.85;;
46036;SDS011;31769;49.304;8.428;2023-02-01T03:47:55;12.77;;;9.10;;
46036;SDS011;31769;49.304;8.428;2023-02-01T03:51:00;15.38;;;9.32;;
46036;SDS011;31769;49.304;8.428;2023-02-01T03:54:03;15.50;;;9.05;;
46036;SDS011;31769;49.304;8.428;2023-02-01T03:57:08;14.35;;;9.45;;
46036;SDS011;31769;49.304;8.428;2023-02-01T04:00:17;14.33;;;8.83;;
46036;SDS011;31769;49.304;8.428;2023-02-01T04:03:18;15.02;;;9.32;;
46036;SDS011;31769;49.304;8.428;2023-02-01T04:06:19;18.92;;;9.65;;
46036;SDS011;31769;49.304;8.428;2023-02-01T04:09:21;13.88;;;8.73;;
46036;SDS011;31769;49.304;8.428;2023-02-01T04:12:22;18.02;;;9.52;;
46036;SDS011;31769;49.304;8.428;2023-02-01T04:15:23;16.75;;;9.93;;
46036;SDS011;31769;49.304;8.428;2023-02-01T04:18:24;19.65;;;8.43;;
46036;SDS011;31769;49.304;8.428;2023-02-01T04:21:25;14.05;;;8.57;;
46036;SDS011;31769;49.304;8.428;2023-02-01T04:24:26;15.00;;;8.57;;
46036;SDS011;31769;49.304;8.428;2023-02-01T04:27:26;14.05;;;9.48;;
46036;SDS011;31769;49.304;8.428;2023-02-01T04:30:27;15.85;;;8.15;;
46036;SDS011;31769;49.304;8.428;2023-02-01T04:33:28;12.35;;;7.88;;
46036;SDS011;31769;49.304;8.428;2023-02-01T04:36:28;11.98;;;7.97;;
46036;SDS011;31769;49.304;8.428;2023-02-01T04:39:29;12.65;;;8.32;;
46036;SDS011;31769;49.304;8.428;2023-02-01T04:42:30;11.20;;;7.40;;
46036;SDS011;31769;49.304;8.428;2023-02-01T04:45:30;11.05;;;7.90;;
46036;SDS011;31769;49.304;8.428;2023-02-01T04:48:31;13.50;;;7.82;;
46036;SDS011;31769;49.304;8.428;2023-02-01T04:51:32;13.45;;;8.07;;
46036;SDS011;31769;49.304;8.428;2023-02-01T04:54:32;14.20;;;8.40;;
46036;SDS011;31769;49.304;8.428;2023-02-01T04:57:33;9.82;;;7.20;;
46036;SDS011;31769;49.304;8.428;2023-02-01T05:00:34;14.10;;;7.15;;
46036;SDS011;31769;49.304;8.428;2023-02-01T05:03:34;13.68;;;7.55;;
46036;SDS011;31769;49.304;8.428;2023-02-01T05:06:35;9.80;;;6.32;;
46036;SDS011;31769;49.304;8.428;2023-02-01T05:09:36;7.55;;;5.72;;
46036;SDS011;31769;49.304;8.428;2023-02-01T05:12:36;7.82;;;5.82;;
46036;SDS011;31769;49.304;8.428;2023-02-01T05:15:55;8.45;;;5.65;;
46036;SDS011;31769;49.304;8.428;2023-02-01T05:18:56;8.60;;;5.70;;
46036;SDS011;31769;49.304;8.428;2023-02-01T05:21:57;12.43;;;7.15;;
46036;SDS011;31769;49.304;8.428;2023-02-01T05:24:57;12.27;;;7.57;;
46036;SDS011;31769;49.304;8.428;2023-02-01T05:27:58;10.02;;;6.22;;
46036;SDS011;31769;49.304;8.428;2023-02-01T05:30:59;10.73;;;7.10;;
46036;SDS011;31769;49.304;8.428;2023-02-01T05:33:59;10.32;;;7.22;;
46036;SDS011;31769;49.304;8.428;2023-02-01T05:37:00;16.27;;;8.77;;
46036;SDS011;31769;49.304;8.428;2023-02-01T05:40:00;14.15;;;8.98;;
46036;SDS011;31769;49.304;8.428;2023-02-01T05:43:01;13.75;;;9.38;;
46036;SDS011;31769;49.304;8.428;2023-02-01T05:46:02;17.75;;;10.20;;
46036;SDS011;31769;49.304;8.428;2023-02-01T05:49:03;16.52;;;9.77;;
46036;SDS011;31769;49.304;8.428;2023-02-01T05:52:04;15.05;;;9.50;;
46036;SDS011;31769;49.304;8.428;2023-02-01T05:55:05;14.65;;;10.27;;
46036;SDS011;31769;49.304;8.428;2023-02-01T05:58:06;14.57;;;10.45;;
46036;SDS011;31769;49.304;8.428;2023-02-01T06:01:06;16.42;;;10.30;;
46036;SDS011;31769;49.304;8.428;2023-02-01T06:04:07;19.02;;;9.85;;
46036;SDS011;31769;49.304;8.428;2023-02-01T06:07:08;16.27;;;9.88;;
46036;SDS011;31769;49.304;8.428;2023-02-01T06:10:10;15.93;;;10.05;;
46036;SDS011;31769;49.304;8.428;2023-02-01T06:13:11;15.77;;;10.13;;
46036;SDS011;31769;49.304;8.428;2023-02-01T06:16:11;17.55;;;10.07;;
46036;SDS011;31769;49.304;8.428;2023-02-01T06:19:15;18.52;;;10.23;;
46036;SDS011;31769;49.304;8.428;2023-02-01T06:22:16;15.88;;;10.13;;
46036;SDS011;31769;49.304;8.428;2023-02-01T06:25:17;19.35;;;10.75;;
46036;SDS011;31769;49.304;8.428;2023-02-01T06:28:17;17.23;;;10.73;;
46036;SDS011;31769;49.304;8.428;2023-02-01T06:31:18;13.68;;;10.73;;
46036;SDS011;31769;49.304;8.428;2023-02-01T06:34:19;17.65;;;10.27;;
46036;SDS011;31769;49.304;8.428;2023-02-01T06:37:22;13.20;;;9.25;;
46036;SDS011;31769;49.304;8.428;2023-02-01T06:40:24;18.40;;;9.68;;
46036;SDS011;31769;49.304;8.428;2023-02-01T06:43:25;15.38;;;9.07;;
46036;SDS011;31769;49.304;8.428;2023-02-01T06:46:27;13.98;;;8.82;;
46036;SDS011;31769;49.304;8.428;2023-02-01T06:49:27;11.93;;;8.57;;
46036;SDS011;31769;49.304;8.428;2023-02-01T06:52:28;12.45;;;8.60;;
46036;SDS011;31769;49.304;8.428;2023-02-01T06:55:29;14.10;;;8.73;;
46036;SDS011;31769;49.304;8.428;2023-02-01T06:58:30;14.25;;;8.55;;
46036;SDS011;31769;49.304;8.428;2023-02-01T07:01:32;13.23;;;7.68;;
46036;SDS011;31769;49.304;8.428;2023-02-01T07:04:33;11.63;;;6.70;;
46036;SDS011;31769;49.304;8.428;2023-02-01T07:07:34;12.98;;;6.55;;
46036;SDS011;31769;49.304;8.428;2023-02-01T07:10:34;13.18;;;6.38;;
46036;SDS011;31769;49.304;8.428;2023-02-01T07:13:38;15.88;;;6.28;;
46036;SDS011;31769;49.304;8.428;2023-02-01T07:16:38;6.82;;;4.50;;
46036;SDS011;31769;49.304;8.428;2023-02-01T07:19:39;7.00;;;4.75;;
46036;SDS011;31769;49.304;8.428;2023-02-01T07:22:40;8.38;;;4.60;;
46036;SDS011;31769;49.304;8.428;2023-02-01T07:25:41;11.00;;;5.18;;
46036;SDS011;31769;49.304;8.428;2023-02-01T07:28:41;9.75;;;5.90;;
46036;SDS011;31769;49.304;8.428;2023-02-01T07:31:42;15.30;;;7.35;;
46036;SDS011;31769;49.304;8.428;2023-02-01T07:34:44;15.38;;;8.05;;
46036;SDS011;31769;49.304;8.428;2023-02-01T07:37:45;17.50;;;8.88;;
46036;SDS011;31769;49.304;8.428;2023-02-01T07:40:45;16.88;;;9.38;;
46036;SDS011;31769;49.304;8.428;2023-02-01T07:43:49;17.40;;;9.55;;
46036;SDS011;31769;49.304;8.428;2023-02-01T07:46:53;20.00;;;11.75;;
46036;SDS011;31769;49.304;8.428;2023-02-01T07:49:54;21.83;;;11.40;;
46036;SDS011;31769;49.304;8.428;2023-02-01T07:52:54;23.02;;;11.13;;
46036;SDS011;31769;49.304;8.428;2023-02-01T07:55:55;24.73;;;10.25;;
46036;SDS011;31769;49.304;8.428;2023-02-01T07:58:57;17.92;;;9.70;;
46036;SDS011;31769;49.304;8.428;2023-02-01T08:01:59;20.83;;;9.57;;
46036;SDS011;31769;49.304;8.428;2023-02-01T08:05:00;21.33;;;8.23;;
46036;SDS011;31769;49.304;8.428;2023-02-01T08:08:01;20.33;;;8.10;;
46036;SDS011;31769;49.304;8.428;2023-02-01T08:11:03;22.92;;;7.90;;
46036;SDS011;31769;49.304;8.428;2023-02-01T08:14:05;20.83;;;8.48;;
46036;SDS011;31769;49.304;8.428;2023-02-01T08:17:06;16.38;;;7.70;;
46036;SDS011;31769;49.304;8.428;2023-02-01T08:20:07;19.83;;;8.95;;
46036;SDS011;31769;49.304;8.428;2023-02-01T08:23:09;23.17;;;8.02;;
46036;SDS011;31769;49.304;8.428;2023-02-01T08:26:17;18.98;;;7.93;;
46036;SDS011;31769;49.304;8.428;2023-02-01T08:29:23;17.65;;;7.90;;
46036;SDS011;31769;49.304;8.428;2023-02-01T08:32:24;15.55;;;7.43;;
46036;SDS011;31769;49.304;8.428;2023-02-01T08:35:25;19.48;;;7.53;;
46036;SDS011;31769;49.304;8.428;2023-02-01T08:38:25;16.52;;;7.10;;
46036;SDS011;31769;49.304;8.428;2023-02-01T08:41:27;20.70;;;7.85;;
46036;SDS011;31769;49.304;8.428;2023-02-01T08:44:29;17.48;;;6.70;;
46036;SDS011;31769;49.304;8.428;2023-02-01T08:47:30;19.15;;;7.38;;
46036;SDS011;31769;49.304;8.428;2023-02-01T08:50:31;20.60;;;7.22;;
46036;SDS011;31769;49.304;8.428;2023-02-01T08:53:32;15.18;;;7.32;;
46036;SDS011;31769;49.304;8.428;2023-02-01T08:56:32;18.25;;;7.35;;
46036;SDS011;31769;49.304;8.428;2023-02-01T08:59:33;23.67;;;7.40;;
46036;SDS011;31769;49.304;8.428;2023-02-01T09:02:34;21.48;;;8.20;;
46036;SDS011;31769;49.304;8.428;2023-02-01T09:05:34;19.05;;;7.93;;
46036;SDS011;31769;49.304;8.428;2023-02-01T09:08:35;22.30;;;8.18;;
46036;SDS011;31769;49.304;8.428;2023-02-01T09:11:40;18.67;;;7.72;;
46036;SDS011;31769;49.304;8.428;2023-02-01T09:17:44;18.08;;;7.88;;
46036;SDS011;31769;49.304;8.428;2023-02-01T09:20:45;22.33;;;7.93;;
46036;SDS011;31769;49.304;8.428;2023-02-01T09:23:46;21.45;;;8.73;;
46036;SDS011;31769;49.304;8.428;2023-02-01T09:26:48;20.42;;;7.55;;
46036;SDS011;31769;49.304;8.428;2023-02-01T09:29:50;23.52;;;8.25;;
46036;SDS011;31769;49.304;8.428;2023-02-01T09:32:52;18.98;;;7.18;;
46036;SDS011;31769;49.304;8.428;2023-02-01T09:35:57;24.30;;;6.63;;
46036;SDS011;31769;49.304;8.428;2023-02-01T09:38:59;24.02;;;7.47;;
46036;SDS011;31769;49.304;8.428;2023-02-01T09:46:24;18.73;;;6.57;;
46036;SDS011;31769;49.304;8.428;2023-02-01T09:49:37;22.27;;;6.15;;
46036;SDS011;31769;49.304;8.428;2023-02-01T09:56:14;21.85;;;5.88;;
46036;SDS011;31769;49.304;8.428;2023-02-01T09:59:29;24.60;;;6.32;;
46036;SDS011;31769;49.304;8.428;2023-02-01T10:02:32;18.90;;;5.70;;
46036;SDS011;31769;49.304;8.428;2023-02-01T10:05:43;17.90;;;4.78;;
46036;SDS011;31769;49.304;8.428;2023-02-01T10:09:10;18.08;;;4.85;;
46036;SDS011;31769;49.304;8.428;2023-02-01T10:18:25;16.33;;;5.20;;
46036;SDS011;31769;49.304;8.428;2023-02-01T10:21:52;21.38;;;5.20;;
46036;SDS011;31769;49.304;8.428;2023-02-01T10:28:25;20.13;;;5.85;;
46036;SDS011;31769;49.304;8.428;2023-02-01T10:31:26;19.45;;;4.93;;
46036;SDS011;31769;49.304;8.428;2023-02-01T10:34:31;19.95;;;4.95;;
46036;SDS011;31769;49.304;8.428;2023-02-01T10:37:34;20.05;;;5.53;;
46036;SDS011;31769;49.304;8.428;2023-02-01T10:40:35;21.60;;;5.57;;
46036;SDS011;31769;49.304;8.428;2023-02-01T10:43:37;23.05;;;6.63;;
46036;SDS011;31769;49.304;8.428;2023-02-01T10:46:39;22.40;;;5.63;;
46036;SDS011;31769;49.304;8.428;2023-02-01T10:49:45;18.85;;;4.93;;
46036;SDS011;31769;49.304;8.428;2023-02-01T10:53:20;16.93;;;4.47;;
46036;SDS011;31769;49.304;8.428;2023-02-01T10:56:29;21.48;;;4.88;;
46036;SDS011;31769;49.304;8.428;2023-02-01T10:59:31;16.08;;;4.40;;
46036;SDS011;31769;49.304;8.428;2023-02-01T11:02:36;18.23;;;5.05;;
46036;SDS011;31769;49.304;8.428;2023-02-01T11:05:43;19.15;;;5.47;;
46036;SDS011;31769;49.304;8.428;2023-02-01T11:08:47;19.77;;;4.63;;
46036;SDS011;31769;49.304;8.428;2023-02-01T11:14:50;18.15;;;4.85;;
46036;SDS011;31769;49.304;8.428;2023-02-01T11:17:56;22.63;;;5.40;;
46036;SDS011;31769;49.304;8.428;2023-02-01T11:21:15;19.35;;;5.10;;
46036;SDS011;31769;49.304;8.428;2023-02-01T11:27:24;21.20;;;4.97;;
46036;SDS011;31769;49.304;8.428;2023-02-01T11:30:33;16.98;;;4.70;;
46036;SDS011;31769;49.304;8.428;2023-02-01T11:33:38;25.08;;;5.32;;
46036;SDS011;31769;49.304;8.428;2023-02-01T11:36:42;17.40;;;4.85;;
46036;SDS011;31769;49.304;8.428;2023-02-01T11:39:56;21.95;;;4.95;;
46036;SDS011;31769;49.304;8.428;2023-02-01T11:42:59;24.00;;;5.07;;
46036;SDS011;31769;49.304;8.428;2023-02-01T11:46:34;20.50;;;5.13;;
46036;SDS011;31769;49.304;8.428;2023-02-01T11:49:35;19.92;;;4.28;;
46036;SDS011;31769;49.304;8.428;2023-02-01T11:52:50;16.08;;;4.45;;
46036;SDS011;31769;49.304;8.428;2023-02-01T11:56:27;24.30;;;5.07;;
46036;SDS011;31769;49.304;8.428;2023-02-01T12:06:28;24.20;;;4.80;;
46036;SDS011;31769;49.304;8.428;2023-02-01T12:39:54;27.67;;;5.28;;
46036;SDS011;31769;49.304;8.428;2023-02-01T12:43:20;20.20;;;5.25;;
46036;SDS011;31769;49.304;8.428;2023-02-01T12:46:36;19.85;;;4.82;;
46036;SDS011;31769;49.304;8.428;2023-02-01T12:49:44;21.23;;;4.55;;
46036;SDS011;31769;49.304;8.428;2023-02-01T12:52:56;18.42;;;4.22;;
46036;SDS011;31769;49.304;8.428;2023-02-01T12:56:33;18.55;;;4.68;;
46036;SDS011;31769;49.304;8.428;2023-02-01T12:59:40;20.00;;;4.10;;
46036;SDS011;31769;49.304;8.428;2023-02-01T13:15:28;16.88;;;4.60;;
46036;SDS011;31769;49.304;8.428;2023-02-01T13:18:34;19.58;;;4.80;;
46036;SDS011;31769;49.304;8.428;2023-02-01T13:21:39;16.05;;;4.57;;
46036;SDS011;31769;49.304;8.428;2023-02-01T13:29:00;22.25;;;5.15;;
46036;SDS011;31769;49.304;8.428;2023-02-01T13:32:09;17.05;;;4.32;;
46036;SDS011;31769;49.304;8.428;2023-02-01T13:35:32;17.88;;;4.72;;
46036;SDS011;31769;49.304;8.428;2023-02-01T13:39:06;22.77;;;4.97;;
46036;SDS011;31769;49.304;8.428;2023-02-01T13:42:23;18.98;;;4.50;;
46036;SDS011;31769;49.304;8.428;2023-02-01T13:45:29;24.45;;;5.15;;
46036;SDS011;31769;49.304;8.428;2023-02-01T13:48:36;21.80;;;4.50;;
46036;SDS011;31769;49.304;8.428;2023-02-01T13:51:45;23.15;;;4.88;;
46036;SDS011;31769;49.304;8.428;2023-02-01T13:58:02;21.70;;;4.68;;
46036;SDS011;31769;49.304;8.428;2023-02-01T14:08:09;16.98;;;3.95;;
46036;SDS011;31769;49.304;8.428;2023-02-01T14:11:35;19.05;;;4.22;;
46036;SDS011;31769;49.304;8.428;2023-02-01T14:17:38;18.85;;;4.43;;
46036;SDS011;31769;49.304;8.428;2023-02-01T14:20:42;18.70;;;4.28;;
46036;SDS011;31769;49.304;8.428;2023-02-01T14:23:46;19.15;;;4.72;;
46036;SDS011;31769;49.304;8.428;2023-02-01T14:26:54;18.38;;;4.05;;
46036;SDS011;31769;49.304;8.428;2023-02-01T14:30:14;19.88;;;6.88;;
46036;SDS011;31769;49.304;8.428;2023-02-01T14:33:20;16.10;;;6.68;;
46036;SDS011;31769;49.304;8.428;2023-02-01T14:36:23;23.73;;;5.05;;
46036;SDS011;31769;49.304;8.428;2023-02-01T14:39:29;21.05;;;4.50;;
46036;SDS011;31769;49.304;8.428;2023-02-01T14:42:53;27.90;;;5.35;;
46036;SDS011;31769;49.304;8.428;2023-02-01T14:45:55;22.92;;;4.15;;
46036;SDS011;31769;49.304;8.428;2023-02-01T14:48:56;18.60;;;4.43;;
46036;SDS011;31769;49.304;8.428;2023-02-01T14:51:56;18.35;;;4.38;;
46036;SDS011;31769;49.304;8.428;2023-02-01T14:55:00;16.55;;;4.60;;
46036;SDS011;31769;49.304;8.428;2023-02-01T14:58:14;19.48;;;3.65;;
46036;SDS011;31769;49.304;8.428;2023-02-01T15:01:23;14.27;;;3.67;;
46036;SDS011;31769;49.304;8.428;2023-02-01T15:04:25;15.13;;;3.75;;
46036;SDS011;31769;49.304;8.428;2023-02-01T15:07:27;19.77;;;4.40;;
46036;SDS011;31769;49.304;8.428;2023-02-01T15:10:29;24.15;;;6.93;;
46036;SDS011;31769;49.304;8.428;2023-02-01T15:13:33;18.67;;;4.97;;
46036;SDS011;31769;49.304;8.428;2023-02-01T15:16:33;16.00;;;3.53;;
46036;SDS011;31769;49.304;8.428;2023-02-01T15:19:51;16.48;;;4.30;;
46036;SDS011;31769;49.304;8.428;2023-02-01T15:25:59;15.98;;;3.65;;
46036;SDS011;31769;49.304;8.428;2023-02-01T15:28:59;18.42;;;4.75;;
46036;SDS011;31769;49.304;8.428;2023-02-01T15:32:00;18.55;;;4.03;;
46036;SDS011;31769;49.304;8.428;2023-02-01T15:35:01;16.15;;;3.38;;
46036;SDS011;31769;49.304;8.428;2023-02-01T15:41:30;18.05;;;4.47;;
46036;SDS011;31769;49.304;8.428;2023-02-01T15:44:33;17.48;;;4.10;;
46036;SDS011;31769;49.304;8.428;2023-02-01T15:47:37;19.83;;;4.38;;
46036;SDS011;31769;49.304;8.428;2023-02-01T15:50:41;19.10;;;4.72;;
46036;SDS011;31769;49.304;8.428;2023-02-01T15:53:49;15.90;;;4.05;;
46036;SDS011;31769;49.304;8.428;2023-02-01T15:56:58;16.58;;;4.15;;
46036;SDS011;31769;49.304;8.428;2023-02-01T16:00:03;23.20;;;4.85;;
46036;SDS011;31769;49.304;8.428;2023-02-01T16:06:28;18.23;;;4.05;;
46036;SDS011;31769;49.304;8.428;2023-02-01T16:09:38;15.23;;;4.20;;
46036;SDS011;31769;49.304;8.428;2023-02-01T16:12:53;15.13;;;4.00;;
46036;SDS011;31769;49.304;8.428;2023-02-01T16:15:58;19.15;;;4.57;;
46036;SDS011;31769;49.304;8.428;2023-02-01T16:18:59;22.95;;;4.45;;
46036;SDS011;31769;49.304;8.428;2023-02-01T16:21:59;18.95;;;4.40;;
46036;SDS011;31769;49.304;8.428;2023-02-01T16:25:00;18.10;;;4.65;;
46036;SDS011;31769;49.304;8.428;2023-02-01T16:28:02;18.40;;;4.35;;
46036;SDS011;31769;49.304;8.428;2023-02-01T16:31:04;18.88;;;5.20;;
46036;SDS011;31769;49.304;8.428;2023-02-01T16:34:04;22.77;;;4.28;;
46036;SDS011;31769;49.304;8.428;2023-02-01T16:37:08;19.25;;;4.75;;
46036;SDS011;31769;49.304;8.428;2023-02-01T16:40:13;27.97;;;4.87;;
46036;SDS011;31769;49.304;8.428;2023-02-01T16:43:16;22.63;;;4.47;;
46036;SDS011;31769;49.304;8.428;2023-02-01T16:46:19;20.52;;;4.88;;
46036;SDS011;31769;49.304;8.428;2023-02-01T16:49:23;16.27;;;4.38;;
46036;SDS011;31769;49.304;8.428;2023-02-01T16:52:25;22.08;;;4.60;;
46036;SDS011;31769;49.304;8.428;2023-02-01T16:55:26;17.75;;;4.30;;
46036;SDS011;31769;49.304;8.428;2023-02-01T16:58:28;20.67;;;4.65;;
46036;SDS011;31769;49.304;8.428;2023-02-01T17:01:28;21.27;;;3.03;;
46036;SDS011;31769;49.304;8.428;2023-02-01T17:04:29;18.38;;;3.70;;
46036;SDS011;31769;49.304;8.428;2023-02-01T17:07:30;18.95;;;3.47;;
46036;SDS011;31769;49.304;8.428;2023-02-01T17:10:30;18.75;;;4.60;;
46036;SDS011;31769;49.304;8.428;2023-02-01T17:13:31;21.30;;;4.32;;
46036;SDS011;31769;49.304;8.428;2023-02-01T17:16:33;16.90;;;3.72;;
46036;SDS011;31769;49.304;8.428;2023-02-01T17:19:33;20.60;;;3.85;;
46036;SDS011;31769;49.304;8.428;2023-02-01T17:22:34;16.52;;;3.00;;
46036;SDS011;31769;49.304;8.428;2023-02-01T17:25:35;16.65;;;3.40;;
46036;SDS011;31769;49.304;8.428;2023-02-01T17:28:35;14.23;;;3.65;;
46036;SDS011;31769;49.304;8.428;2023-02-01T17:31:37;17.42;;;3.60;;
46036;SDS011;31769;49.304;8.428;2023-02-01T17:34:39;19.23;;;3.95;;
46036;SDS011;31769;49.304;8.428;2023-02-01T17:37:40;16.45;;;3.03;;
46036;SDS011;31769;49.304;8.428;2023-02-01T17:40:40;17.55;;;3.45;;
46036;SDS011;31769;49.304;8.428;2023-02-01T17:43:42;11.98;;;3.17;;
46036;SDS011;31769;49.304;8.428;2023-02-01T17:46:43;21.38;;;4.07;;
46036;SDS011;31769;49.304;8.428;2023-02-01T17:49:43;19.20;;;3.90;;
46036;SDS011;31769;49.304;8.428;2023-02-01T17:52:44;21.48;;;4.30;;
46036;SDS011;31769;49.304;8.428;2023-02-01T17:55:45;16.58;;;3.80;;
46036;SDS011;31769;49.304;8.428;2023-02-01T17:58:46;19.42;;;4.07;;
46036;SDS011;31769;49.304;8.428;2023-02-01T18:01:47;18.02;;;4.35;;
46036;SDS011;31769;49.304;8.428;2023-02-01T18:04:48;19.17;;;4.20;;
46036;SDS011;31769;49.304;8.428;2023-02-01T18:07:50;14.85;;;3.60;;
46036;SDS011;31769;49.304;8.428;2023-02-01T18:10:51;16.30;;;3.78;;
46036;SDS011;31769;49.304;8.428;2023-02-01T18:13:59;21.75;;;3.55;;
46036;SDS011;31769;49.304;8.428;2023-02-01T18:17:00;19.92;;;4.35;;
46036;SDS011;31769;49.304;8.428;2023-02-01T18:20:01;18.88;;;3.85;;
46036;SDS011;31769;49.304;8.428;2023-02-01T18:23:01;19.15;;;4.45;;
46036;SDS011;31769;49.304;8.428;2023-02-01T18:26:02;15.80;;;4.53;;
46036;SDS011;31769;49.304;8.428;2023-02-01T18:29:03;25.52;;;4.68;;
46036;SDS011;31769;49.304;8.428;2023-02-01T18:32:04;23.88;;;5.30;;
46036;SDS011;31769;49.304;8.428;2023-02-01T18:35:15;21.40;;;4.05;;
46036;SDS011;31769;49.304;8.428;2023-02-01T18:38:20;23.90;;;4.22;;
46036;SDS011;31769;49.304;8.428;2023-02-01T18:41:21;20.15;;;4.63;;
46036;SDS011;31769;49.304;8.428;2023-02-01T18:44:22;20.77;;;3.90;;
46036;SDS011;31769;49.304;8.428;2023-02-01T18:47:23;21.05;;;5.20;;
46036;SDS011;31769;49.304;8.428;2023-02-01T18:50:24;17.05;;;3.85;;
46036;SDS011;31769;49.304;8.428;2023-02-01T18:53:27;19.58;;;4.15;;
46036;SDS011;31769;49.304;8.428;2023-02-01T18:56:28;20.95;;;4.00;;
46036;SDS011;31769;49.304;8.428;2023-02-01T18:59:28;21.67;;;4.88;;
46036;SDS011;31769;49.304;8.428;2023-02-01T19:02:29;17.10;;;3.10;;
46036;SDS011;31769;49.304;8.428;2023-02-01T19:05:30;23.45;;;3.95;;
46036;SDS011;31769;49.304;8.428;2023-02-01T19:08:31;22.92;;;4.03;;
46036;SDS011;31769;49.304;8.428;2023-02-01T19:11:32;21.67;;;4.18;;
46036;SDS011;31769;49.304;8.428;2023-02-01T19:14:32;25.00;;;4.70;;
46036;SDS011;31769;49.304;8.428;2023-02-01T19:17:33;24.48;;;4.55;;
46036;SDS011;31769;49.304;8.428;2023-02-01T19:20:35;16.73;;;3.72;;
46036;SDS011;31769;49.304;8.428;2023-02-01T19:23:40;20.10;;;4.22;;
46036;SDS011;31769;49.304;8.428;2023-02-01T19:26:41;21.00;;;4.15;;
46036;SDS011;31769;49.304;8.428;2023-02-01T19:29:42;24.30;;;3.85;;
46036;SDS011;31769;49.304;8.428;2023-02-01T19:32:45;18.42;;;4.03;;
46036;SDS011;31769;49.304;8.428;2023-02-01T19:35:45;19.88;;;4.28;;
46036;SDS011;31769;49.304;8.428;2023-02-01T19:38:46;22.40;;;4.40;;
46036;SDS011;31769;49.304;8.428;2023-02-01T19:41:47;20.02;;;3.97;;
46036;SDS011;31769;49.304;8.428;2023-02-01T19:44:47;19.63;;;4.00;;
46036;SDS011;31769;49.304;8.428;2023-02-01T19:47:48;23.60;;;4.38;;
46036;SDS011;31769;49.304;8.428;2023-02-01T19:50:49;20.42;;;3.85;;
46036;SDS011;31769;49.304;8.428;2023-02-01T19:53:50;29.27;;;4.45;;
46036;SDS011;31769;49.304;8.428;2023-02-01T19:56:50;17.70;;;3.90;;
46036;SDS011;31769;49.304;8.428;2023-02-01T19:59:51;21.38;;;3.45;;
46036;SDS011;31769;49.304;8.428;2023-02-01T20:02:52;23.92;;;6.13;;
46036;SDS011;31769;49.304;8.428;2023-02-01T20:05:53;19.33;;;4.53;;
46036;SDS011;31769;49.304;8.428;2023-02-01T20:08:55;22.63;;;4.80;;
46036;SDS011;31769;49.304;8.428;2023-02-01T20:11:56;19.42;;;3.92;;
46036;SDS011;31769;49.304;8.428;2023-02-01T20:14:57;20.60;;;4.28;;
46036;SDS011;31769;49.304;8.428;2023-02-01T20:17:58;25.90;;;4.07;;
46036;SDS011;31769;49.304;8.428;2023-02-01T20:20:59;24.77;;;5.13;;
46036;SDS011;31769;49.304;8.428;2023-02-01T20:23:59;20.77;;;4.35;;
46036;SDS011;31769;49.304;8.428;2023-02-01T20:27:00;20.83;;;4.60;;
46036;SDS011;31769;49.304;8.428;2023-02-01T20:30:01;21.98;;;4.43;;
46036;SDS011;31769;49.304;8.428;2023-02-01T20:33:02;29.83;;;4.80;;
46036;SDS011;31769;49.304;8.428;2023-02-01T20:36:02;25.80;;;4.53;;
46036;SDS011;31769;49.304;8.428;2023-02-01T20:39:04;24.52;;;4.30;;
46036;SDS011;31769;49.304;8.428;2023-02-01T20:42:04;18.23;;;3.75;;
46036;SDS011;31769;49.304;8.428;2023-02-01T20:45:08;22.13;;;4.22;;
46036;SDS011;31769;49.304;8.428;2023-02-01T20:48:09;22.90;;;4.25;;
46036;SDS011;31769;49.304;8.428;2023-02-01T20:51:11;20.15;;;4.30;;
46036;SDS011;31769;49.304;8.428;2023-02-01T20:54:12;20.08;;;4.93;;
46036;SDS011;31769;49.304;8.428;2023-02-01T20:57:13;21.52;;;3.92;;
46036;SDS011;31769;49.304;8.428;2023-02-01T21:00:14;18.35;;;3.55;;
46036;SDS011;31769;49.304;8.428;2023-02-01T21:03:15;19.70;;;4.63;;
46036;SDS011;31769;49.304;8.428;2023-02-01T21:06:16;23.85;;;5.00;;
46036;SDS011;31769;49.304;8.428;2023-02-01T21:09:17;18.88;;;4.45;;
46036;SDS011;31769;49.304;8.428;2023-02-01T21:12:17;20.52;;;4.47;;
46036;SDS011;31769;49.304;8.428;2023-02-01T21:15:18;21.50;;;4.47;;
46036;SDS011;31769;49.304;8.428;2023-02-01T21:18:20;23.85;;;4.55;;
46036;SDS011;31769;49.304;8.428;2023-02-01T21:21:22;22.58;;;4.47;;
46036;SDS011;31769;49.304;8.428;2023-02-01T21:24:22;21.23;;;4.32;;
46036;SDS011;31769;49.304;8.428;2023-02-01T21:27:23;20.58;;;4.30;;
46036;SDS011;31769;49.304;8.428;2023-02-01T21:30:24;21.48;;;4.60;;
46036;SDS011;31769;49.304;8.428;2023-02-01T21:33:24;25.05;;;4.60;;
46036;SDS011;31769;49.304;8.428;2023-02-01T21:36:25;17.35;;;4.15;;
46036;SDS011;31769;49.304;8.428;2023-02-01T21:39:29;20.48;;;3.97;;
46036;SDS011;31769;49.304;8.428;2023-02-01T21:42:30;18.60;;;4.15;;
46036;SDS011;31769;49.304;8.428;2023-02-01T21:45:31;21.00;;;4.22;;
46036;SDS011;31769;49.304;8.428;2023-02-01T21:48:32;21.08;;;4.00;;
46036;SDS011;31769;49.304;8.428;2023-02-01T21:51:33;21.73;;;4.30;;
46036;SDS011;31769;49.304;8.428;2023-02-01T21:54:36;22.05;;;3.90;;
46036;SDS011;31769;49.304;8.428;2023-02-01T21:57:40;19.52;;;4.15;;
46036;SDS011;31769;49.304;8.428;2023-02-01T22:00:41;22.58;;;5.57;;
46036;SDS011;31769;49.304;8.428;2023-02-01T22:03:46;22.63;;;5.50;;
46036;SDS011;31769;49.304;8.428;2023-02-01T22:06:48;23.58;;;5.40;;
46036;SDS011;31769;49.304;8.428;2023-02-01T22:09:48;19.08;;;4.97;;
46036;SDS011;31769;49.304;8.428;2023-02-01T22:12:49;22.90;;;5.20;;
46036;SDS011;31769;49.304;8.428;2023-02-01T22:15:50;22.15;;;6.43;;
46036;SDS011;31769;49.304;8.428;2023-02-01T22:18:51;21.48;;;5.68;;
46036;SDS011;31769;49.304;8.428;2023-02-01T22:21:53;18.38;;;4.82;;
46036;SDS011;31769;49.304;8.428;2023-02-01T22:24:53;18.13;;;4.90;;
46036;SDS011;31769;49.304;8.428;2023-02-01T22:27:54;25.13;;;5.95;;
46036;SDS011;31769;49.304;8.428;2023-02-01T22:30:59;23.90;;;5.63;;
46036;SDS011;31769;49.304;8.428;2023-02-01T22:34:00;21.70;;;5.60;;
46036;SDS011;31769;49.304;8.428;2023-02-01T22:37:01;22.48;;;5.57;;
46036;SDS011;31769;49.304;8.428;2023-02-01T22:40:02;18.15;;;5.82;;
46036;SDS011;31769;49.304;8.428;2023-02-01T22:43:04;20.20;;;6.15;;
46036;SDS011;31769;49.304;8.428;2023-02-01T22:46:06;23.10;;;6.28;;
46036;SDS011;31769;49.304;8.428;2023-02-01T22:49:11;23.42;;;5.45;;
46036;SDS011;31769;49.304;8.428;2023-02-01T22:52:11;24.48;;;5.63;;
46036;SDS011;31769;49.304;8.428;2023-02-01T22:55:12;20.58;;;5.85;;
46036;SDS011;31769;49.304;8.428;2023-02-01T22:58:13;21.25;;;5.43;;